sensor_id;sensor_type;location;lat;lon;timestamp;P1;durP1;ratioP1;P2;durP2;ratioP2
920;SDS011;447;51.332;6.778;2023-03-16T00:00:17;3.60;;;2.70;;
920;SDS011;447;51.332;6.778;2023-03-16T00:02:44;3.80;;;2.80;;
920;SDS011;447;51.332;6.778;2023-03-16T00:05:12;2.50;;;2.03;;
920;SDS011;447;51.332;6.778;2023-03-16T00:07:39;3.57;;;2.70;;
920;SDS011;447;51.332;6.778;2023-03-16T00:10:06;3.00;;;2.43;;
920;SDS011;447;51.332;6.778;2023-03-16T00:12:35;5.03;;;2.87;;
920;SDS011;447;51.332;6.778;2023-03-16T00:15:01;6.60;;;2.37;;
920;SDS011;447;51.332;6.778;2023-03-16T00:17:28;3.67;;;2.70;;
920;SDS011;447;51.332;6.778;2023-03-16T00:19:55;5.47;;;2.20;;
920;SDS011;447;51.332;6.778;2023-03-16T00:24:50;5.33;;;2.73;;
920;SDS011;447;51.332;6.778;2023-03-16T00:27:17;6.40;;;2.57;;
920;SDS011;447;51.332;6.778;2023-03-16T00:29:46;4.00;;;2.57;;
920;SDS011;447;51.332;6.778;2023-03-16T00:32:16;5.37;;;3.00;;
920;SDS011;447;51.332;6.778;2023-03-16T00:34:44;4.73;;;2.67;;
920;SDS011;447;51.332;6.778;2023-03-16T00:37:11;5.70;;;2.40;;
920;SDS011;447;51.332;6.778;2023-03-16T00:39:40;3.63;;;2.27;;
920;SDS011;447;51.332;6.778;2023-03-16T00:42:07;4.70;;;3.20;;
920;SDS011;447;51.332;6.778;2023-03-16T00:44:36;3.00;;;2.47;;
920;SDS011;447;51.332;6.778;2023-03-16T00:47:05;4.70;;;2.73;;
920;SDS011;447;51.332;6.778;2023-03-16T00:49:31;6.80;;;2.83;;
920;SDS011;447;51.332;6.778;2023-03-16T00:52:01;4.20;;;2.43;;
920;SDS011;447;51.332;6.778;2023-03-16T00:54:33;4.47;;;3.10;;
920;SDS011;447;51.332;6.778;2023-03-16T00:57:04;4.90;;;2.80;;
920;SDS011;447;51.332;6.778;2023-03-16T00:59:30;4.03;;;3.00;;
920;SDS011;447;51.332;6.778;2023-03-16T01:01:56;3.50;;;3.00;;
920;SDS011;447;51.332;6.778;2023-03-16T01:04:22;3.60;;;2.87;;
920;SDS011;447;51.332;6.778;2023-03-16T01:06:48;5.30;;;2.70;;
920;SDS011;447;51.332;6.778;2023-03-16T01:09:14;3.73;;;2.67;;
920;SDS011;447;51.332;6.778;2023-03-16T01:11:43;4.93;;;3.17;;
920;SDS011;447;51.332;6.778;2023-03-16T01:14:13;4.77;;;3.50;;
920;SDS011;447;51.332;6.778;2023-03-16T01:16:40;4.63;;;3.07;;
920;SDS011;447;51.332;6.778;2023-03-16T01:19:10;2.83;;;2.60;;
920;SDS011;447;51.332;6.778;2023-03-16T01:21:38;3.47;;;2.60;;
920;SDS011;447;51.332;6.778;2023-03-16T01:24:04;5.27;;;3.13;;
920;SDS011;447;51.332;6.778;2023-03-16T01:26:30;3.50;;;3.00;;
920;SDS011;447;51.332;6.778;2023-03-16T01:28:56;4.40;;;2.83;;
920;SDS011;447;51.332;6.778;2023-03-16T01:31:23;4.40;;;3.03;;
920;SDS011;447;51.332;6.778;2023-03-16T01:33:52;6.40;;;3.20;;
920;SDS011;447;51.332;6.778;2023-03-16T01:36:22;3.50;;;2.70;;
920;SDS011;447;51.332;6.778;2023-03-16T01:38:59;4.27;;;2.67;;
920;SDS011;447;51.332;6.778;2023-03-16T01:41:28;3.77;;;2.80;;
920;SDS011;447;51.332;6.778;2023-03-16T01:43:56;7.30;;;3.23;;
920;SDS011;447;51.332;6.778;2023-03-16T01:46:27;3.10;;;2.80;;
920;SDS011;447;51.332;6.778;2023-03-16T01:48:55;6.23;;;3.37;;
920;SDS011;447;51.332;6.778;2023-03-16T01:51:44;6.27;;;2.77;;
920;SDS011;447;51.332;6.778;2023-03-16T01:54:28;3.00;;;2.60;;
920;SDS011;447;51.332;6.778;2023-03-16T02:02:08;4.30;;;2.97;;
920;SDS011;447;51.332;6.778;2023-03-16T02:04:46;3.77;;;3.10;;
920;SDS011;447;51.332;6.778;2023-03-16T02:07:17;4.70;;;2.77;;
920;SDS011;447;51.332;6.778;2023-03-16T02:09:45;2.80;;;2.40;;
920;SDS011;447;51.332;6.778;2023-03-16T02:12:15;4.30;;;2.47;;
920;SDS011;447;51.332;6.778;2023-03-16T02:14:50;4.43;;;3.00;;
920;SDS011;447;51.332;6.778;2023-03-16T02:17:18;5.90;;;2.57;;
920;SDS011;447;51.332;6.778;2023-03-16T02:22:26;4.87;;;2.87;;
920;SDS011;447;51.332;6.778;2023-03-16T02:24:53;4.97;;;2.57;;
920;SDS011;447;51.332;6.778;2023-03-16T02:28:04;2.87;;;2.40;;
920;SDS011;447;51.332;6.778;2023-03-16T02:30:15;2.57;;;2.27;;
920;SDS011;447;51.332;6.778;2023-03-16T02:32:59;3.20;;;2.40;;
920;SDS011;447;51.332;6.778;2023-03-16T02:35:30;3.33;;;2.50;;
920;SDS011;447;51.332;6.778;2023-03-16T02:37:57;4.27;;;2.33;;
920;SDS011;447;51.332;6.778;2023-03-16T02:40:28;6.13;;;2.63;;
920;SDS011;447;51.332;6.778;2023-03-16T02:45:38;3.57;;;2.60;;
920;SDS011;447;51.332;6.778;2023-03-16T02:48:19;5.67;;;3.10;;
920;SDS011;447;51.332;6.778;2023-03-16T02:50:54;4.23;;;2.30;;
920;SDS011;447;51.332;6.778;2023-03-16T02:53:24;2.90;;;2.33;;
920;SDS011;447;51.332;6.778;2023-03-16T02:55:51;3.63;;;2.57;;
920;SDS011;447;51.332;6.778;2023-03-16T02:58:20;2.87;;;2.50;;
920;SDS011;447;51.332;6.778;2023-03-16T03:00:48;4.70;;;2.40;;
920;SDS011;447;51.332;6.778;2023-03-16T03:03:16;3.20;;;2.27;;
920;SDS011;447;51.332;6.778;2023-03-16T03:05:41;4.60;;;2.27;;
920;SDS011;447;51.332;6.778;2023-03-16T03:08:08;5.80;;;2.73;;
920;SDS011;447;51.332;6.778;2023-03-16T03:10:36;3.77;;;2.60;;
920;SDS011;447;51.332;6.778;2023-03-16T03:13:05;3.40;;;2.57;;
920;SDS011;447;51.332;6.778;2023-03-16T03:15:34;5.20;;;2.30;;
920;SDS011;447;51.332;6.778;2023-03-16T03:18:06;4.73;;;2.63;;
920;SDS011;447;51.332;6.778;2023-03-16T03:20:35;2.70;;;2.40;;
920;SDS011;447;51.332;6.778;2023-03-16T03:23:04;3.10;;;2.80;;
920;SDS011;447;51.332;6.778;2023-03-16T03:25:30;4.27;;;2.67;;
920;SDS011;447;51.332;6.778;2023-03-16T03:27:59;3.93;;;2.27;;
920;SDS011;447;51.332;6.778;2023-03-16T03:30:27;4.07;;;2.50;;
920;SDS011;447;51.332;6.778;2023-03-16T03:32:53;3.80;;;2.93;;
920;SDS011;447;51.332;6.778;2023-03-16T03:35:23;2.90;;;2.33;;
920;SDS011;447;51.332;6.778;2023-03-16T03:37:49;3.00;;;2.40;;
920;SDS011;447;51.332;6.778;2023-03-16T03:40:18;2.10;;;1.90;;
920;SDS011;447;51.332;6.778;2023-03-16T03:42:54;4.40;;;2.60;;
920;SDS011;447;51.332;6.778;2023-03-16T03:45:21;4.83;;;2.67;;
920;SDS011;447;51.332;6.778;2023-03-16T03:47:50;3.20;;;2.10;;
920;SDS011;447;51.332;6.778;2023-03-16T03:50:19;2.90;;;2.40;;
920;SDS011;447;51.332;6.778;2023-03-16T03:53:04;5.57;;;2.87;;
920;SDS011;447;51.332;6.778;2023-03-16T03:55:38;4.53;;;2.50;;
920;SDS011;447;51.332;6.778;2023-03-16T03:58:06;2.87;;;2.07;;
920;SDS011;447;51.332;6.778;2023-03-16T04:00:36;3.60;;;2.47;;
920;SDS011;447;51.332;6.778;2023-03-16T04:03:02;2.77;;;2.30;;
920;SDS011;447;51.332;6.778;2023-03-16T04:05:38;3.60;;;2.20;;
920;SDS011;447;51.332;6.778;2023-03-16T04:08:04;3.78;;;2.47;;
920;SDS011;447;51.332;6.778;2023-03-16T04:10:30;4.73;;;2.60;;
920;SDS011;447;51.332;6.778;2023-03-16T04:12:59;3.77;;;2.37;;
920;SDS011;447;51.332;6.778;2023-03-16T04:15:30;3.42;;;2.20;;
920;SDS011;447;51.332;6.778;2023-03-16T04:18:08;3.17;;;2.57;;
920;SDS011;447;51.332;6.778;2023-03-16T04:20:38;4.00;;;2.47;;
920;SDS011;447;51.332;6.778;2023-03-16T04:23:07;3.33;;;2.60;;
920;SDS011;447;51.332;6.778;2023-03-16T04:25:35;3.90;;;2.50;;
920;SDS011;447;51.332;6.778;2023-03-16T04:28:03;3.92;;;2.50;;
920;SDS011;447;51.332;6.778;2023-03-16T04:30:32;4.60;;;2.90;;
920;SDS011;447;51.332;6.778;2023-03-16T04:33:11;3.67;;;2.50;;
920;SDS011;447;51.332;6.778;2023-03-16T04:35:36;3.80;;;2.50;;
920;SDS011;447;51.332;6.778;2023-03-16T04:38:02;7.43;;;2.37;;
920;SDS011;447;51.332;6.778;2023-03-16T04:40:38;4.47;;;2.60;;
920;SDS011;447;51.332;6.778;2023-03-16T04:43:12;5.23;;;3.40;;
920;SDS011;447;51.332;6.778;2023-03-16T04:45:38;3.23;;;2.53;;
920;SDS011;447;51.332;6.778;2023-03-16T04:48:05;2.80;;;2.40;;
920;SDS011;447;51.332;6.778;2023-03-16T04:50:31;2.90;;;2.40;;
920;SDS011;447;51.332;6.778;2023-03-16T04:52:58;3.83;;;2.67;;
920;SDS011;447;51.332;6.778;2023-03-16T04:55:25;6.33;;;3.03;;
920;SDS011;447;51.332;6.778;2023-03-16T04:57:51;4.10;;;2.40;;
920;SDS011;447;51.332;6.778;2023-03-16T05:00:21;3.37;;;2.33;;
920;SDS011;447;51.332;6.778;2023-03-16T05:03:07;5.00;;;2.83;;
920;SDS011;447;51.332;6.778;2023-03-16T05:05:37;5.83;;;3.00;;
920;SDS011;447;51.332;6.778;2023-03-16T05:08:05;6.07;;;3.10;;
920;SDS011;447;51.332;6.778;2023-03-16T05:10:33;3.60;;;2.73;;
920;SDS011;447;51.332;6.778;2023-03-16T05:13:00;5.30;;;2.80;;
920;SDS011;447;51.332;6.778;2023-03-16T05:15:28;4.30;;;3.00;;
920;SDS011;447;51.332;6.778;2023-03-16T05:18:15;5.33;;;3.03;;
920;SDS011;447;51.332;6.778;2023-03-16T05:20:41;5.73;;;3.07;;
920;SDS011;447;51.332;6.778;2023-03-16T05:23:12;4.67;;;2.87;;
920;SDS011;447;51.332;6.778;2023-03-16T05:25:45;6.27;;;3.93;;
920;SDS011;447;51.332;6.778;2023-03-16T05:28:13;4.50;;;2.40;;
920;SDS011;447;51.332;6.778;2023-03-16T05:30:50;5.37;;;3.10;;
920;SDS011;447;51.332;6.778;2023-03-16T05:33:21;4.77;;;3.10;;
920;SDS011;447;51.332;6.778;2023-03-16T05:35:52;5.53;;;3.20;;
920;SDS011;447;51.332;6.778;2023-03-16T05:38:18;3.37;;;2.90;;
920;SDS011;447;51.332;6.778;2023-03-16T05:40:44;4.40;;;3.17;;
920;SDS011;447;51.332;6.778;2023-03-16T05:43:22;3.93;;;3.17;;
920;SDS011;447;51.332;6.778;2023-03-16T05:45:53;6.20;;;3.20;;
920;SDS011;447;51.332;6.778;2023-03-16T05:48:20;4.32;;;3.30;;
920;SDS011;447;51.332;6.778;2023-03-16T05:50:51;4.00;;;2.85;;
920;SDS011;447;51.332;6.778;2023-03-16T05:53:23;3.80;;;2.93;;
920;SDS011;447;51.332;6.778;2023-03-16T05:55:53;3.97;;;3.30;;
920;SDS011;447;51.332;6.778;2023-03-16T05:58:20;4.40;;;3.60;;
920;SDS011;447;51.332;6.778;2023-03-16T06:00:52;7.00;;;3.70;;
920;SDS011;447;51.332;6.778;2023-03-16T06:03:24;5.50;;;3.30;;
920;SDS011;447;51.332;6.778;2023-03-16T06:05:55;5.88;;;3.70;;
920;SDS011;447;51.332;6.778;2023-03-16T06:08:28;4.40;;;2.97;;
920;SDS011;447;51.332;6.778;2023-03-16T06:11:00;4.00;;;3.33;;
920;SDS011;447;51.332;6.778;2023-03-16T06:13:28;4.80;;;3.50;;
920;SDS011;447;51.332;6.778;2023-03-16T06:15:58;5.45;;;3.63;;
920;SDS011;447;51.332;6.778;2023-03-16T06:18:27;3.53;;;3.23;;
920;SDS011;447;51.332;6.778;2023-03-16T06:20:56;5.75;;;3.13;;
920;SDS011;447;51.332;6.778;2023-03-16T06:23:23;4.30;;;3.55;;
920;SDS011;447;51.332;6.778;2023-03-16T06:25:53;3.90;;;3.30;;
920;SDS011;447;51.332;6.778;2023-03-16T06:28:23;4.60;;;3.30;;
920;SDS011;447;51.332;6.778;2023-03-16T06:30:54;4.97;;;3.47;;
920;SDS011;447;51.332;6.778;2023-03-16T06:33:23;8.18;;;4.22;;
920;SDS011;447;51.332;6.778;2023-03-16T06:35:50;10.68;;;4.35;;
920;SDS011;447;51.332;6.778;2023-03-16T06:38:25;5.50;;;3.97;;
920;SDS011;447;51.332;6.778;2023-03-16T06:41:11;6.03;;;3.50;;
920;SDS011;447;51.332;6.778;2023-03-16T06:43:38;7.47;;;4.40;;
920;SDS011;447;51.332;6.778;2023-03-16T06:46:07;4.78;;;3.90;;
920;SDS011;447;51.332;6.778;2023-03-16T06:48:34;5.63;;;3.80;;
920;SDS011;447;51.332;6.778;2023-03-16T06:51:00;3.90;;;3.50;;
920;SDS011;447;51.332;6.778;2023-03-16T06:53:28;4.80;;;4.35;;
920;SDS011;447;51.332;6.778;2023-03-16T06:55:58;6.03;;;3.80;;
920;SDS011;447;51.332;6.778;2023-03-16T06:58:28;4.63;;;3.93;;
920;SDS011;447;51.332;6.778;2023-03-16T07:01:00;5.70;;;3.88;;
920;SDS011;447;51.332;6.778;2023-03-16T07:03:28;3.80;;;3.37;;
920;SDS011;447;51.332;6.778;2023-03-16T07:06:01;5.63;;;4.40;;
920;SDS011;447;51.332;6.778;2023-03-16T07:08:27;5.38;;;4.10;;
920;SDS011;447;51.332;6.778;2023-03-16T07:10:54;6.95;;;3.90;;
920;SDS011;447;51.332;6.778;2023-03-16T07:13:22;4.95;;;4.03;;
920;SDS011;447;51.332;6.778;2023-03-16T07:15:49;4.57;;;3.57;;
920;SDS011;447;51.332;6.778;2023-03-16T07:18:19;4.60;;;3.50;;
920;SDS011;447;51.332;6.778;2023-03-16T07:20:48;5.15;;;4.20;;
920;SDS011;447;51.332;6.778;2023-03-16T07:23:14;4.47;;;3.70;;
920;SDS011;447;51.332;6.778;2023-03-16T07:25:41;7.78;;;3.55;;
920;SDS011;447;51.332;6.778;2023-03-16T07:28:11;6.32;;;3.67;;
920;SDS011;447;51.332;6.778;2023-03-16T07:30:42;6.75;;;4.13;;
920;SDS011;447;51.332;6.778;2023-03-16T07:33:10;5.25;;;3.47;;
920;SDS011;447;51.332;6.778;2023-03-16T07:35:38;4.35;;;3.38;;
920;SDS011;447;51.332;6.778;2023-03-16T07:38:04;6.07;;;3.80;;
920;SDS011;447;51.332;6.778;2023-03-16T07:40:37;4.55;;;3.70;;
920;SDS011;447;51.332;6.778;2023-03-16T07:43:10;4.80;;;3.87;;
920;SDS011;447;51.332;6.778;2023-03-16T07:45:47;4.63;;;3.77;;
920;SDS011;447;51.332;6.778;2023-03-16T07:48:20;5.60;;;4.40;;
920;SDS011;447;51.332;6.778;2023-03-16T07:50:52;4.25;;;3.78;;
920;SDS011;447;51.332;6.778;2023-03-16T07:53:21;5.30;;;3.90;;
920;SDS011;447;51.332;6.778;2023-03-16T07:56:01;3.78;;;3.33;;
920;SDS011;447;51.332;6.778;2023-03-16T07:58:32;4.30;;;3.20;;
920;SDS011;447;51.332;6.778;2023-03-16T08:01:00;6.10;;;3.80;;
920;SDS011;447;51.332;6.778;2023-03-16T08:03:27;3.63;;;3.20;;
920;SDS011;447;51.332;6.778;2023-03-16T08:05:54;6.40;;;3.80;;
920;SDS011;447;51.332;6.778;2023-03-16T08:08:20;5.07;;;3.80;;
920;SDS011;447;51.332;6.778;2023-03-16T08:10:47;6.73;;;3.67;;
920;SDS011;447;51.332;6.778;2023-03-16T08:13:19;6.63;;;3.75;;
920;SDS011;447;51.332;6.778;2023-03-16T08:15:49;5.30;;;3.50;;
920;SDS011;447;51.332;6.778;2023-03-16T08:18:34;5.13;;;3.45;;
920;SDS011;447;51.332;6.778;2023-03-16T08:21:01;7.22;;;3.75;;
920;SDS011;447;51.332;6.778;2023-03-16T08:23:30;6.72;;;4.20;;
920;SDS011;447;51.332;6.778;2023-03-16T08:25:58;4.85;;;3.78;;
920;SDS011;447;51.332;6.778;2023-03-16T08:28:26;4.88;;;4.13;;
920;SDS011;447;51.332;6.778;2023-03-16T08:30:57;5.87;;;3.90;;
920;SDS011;447;51.332;6.778;2023-03-16T08:33:42;4.90;;;3.70;;
920;SDS011;447;51.332;6.778;2023-03-16T08:36:11;4.97;;;4.43;;
920;SDS011;447;51.332;6.778;2023-03-16T08:38:44;5.90;;;4.28;;
920;SDS011;447;51.332;6.778;2023-03-16T08:41:11;9.60;;;4.27;;
920;SDS011;447;51.332;6.778;2023-03-16T08:43:40;4.77;;;4.33;;
920;SDS011;447;51.332;6.778;2023-03-16T08:46:06;4.67;;;3.73;;
920;SDS011;447;51.332;6.778;2023-03-16T08:48:48;5.40;;;4.03;;
920;SDS011;447;51.332;6.778;2023-03-16T08:51:15;4.43;;;3.80;;
920;SDS011;447;51.332;6.778;2023-03-16T08:53:44;5.07;;;3.60;;
920;SDS011;447;51.332;6.778;2023-03-16T08:56:11;5.40;;;3.50;;
920;SDS011;447;51.332;6.778;2023-03-16T08:58:40;7.20;;;3.63;;
920;SDS011;447;51.332;6.778;2023-03-16T09:01:12;4.65;;;3.85;;
920;SDS011;447;51.332;6.778;2023-03-16T09:03:40;4.50;;;4.10;;
920;SDS011;447;51.332;6.778;2023-03-16T09:06:10;3.90;;;3.50;;
920;SDS011;447;51.332;6.778;2023-03-16T09:08:40;5.80;;;4.20;;
920;SDS011;447;51.332;6.778;2023-03-16T09:11:09;4.87;;;3.93;;
920;SDS011;447;51.332;6.778;2023-03-16T09:13:40;5.43;;;3.80;;
920;SDS011;447;51.332;6.778;2023-03-16T09:16:10;4.60;;;3.43;;
920;SDS011;447;51.332;6.778;2023-03-16T09:18:43;4.37;;;3.97;;
920;SDS011;447;51.332;6.778;2023-03-16T09:21:09;5.40;;;4.10;;
920;SDS011;447;51.332;6.778;2023-03-16T09:23:40;5.40;;;4.00;;
920;SDS011;447;51.332;6.778;2023-03-16T09:26:07;4.90;;;4.40;;
920;SDS011;447;51.332;6.778;2023-03-16T09:28:36;4.30;;;3.70;;
920;SDS011;447;51.332;6.778;2023-03-16T09:31:06;6.55;;;4.00;;
920;SDS011;447;51.332;6.778;2023-03-16T09:33:36;5.78;;;3.83;;
920;SDS011;447;51.332;6.778;2023-03-16T09:36:04;5.80;;;3.53;;
920;SDS011;447;51.332;6.778;2023-03-16T09:38:33;4.63;;;3.80;;
920;SDS011;447;51.332;6.778;2023-03-16T09:41:06;6.00;;;3.63;;
920;SDS011;447;51.332;6.778;2023-03-16T09:43:51;4.35;;;3.95;;
920;SDS011;447;51.332;6.778;2023-03-16T09:46:27;5.65;;;4.13;;
920;SDS011;447;51.332;6.778;2023-03-16T09:48:58;5.65;;;4.05;;
920;SDS011;447;51.332;6.778;2023-03-16T09:51:47;5.07;;;3.90;;
920;SDS011;447;51.332;6.778;2023-03-16T09:57:29;4.80;;;4.00;;
920;SDS011;447;51.332;6.778;2023-03-16T10:00:13;4.50;;;3.30;;
920;SDS011;447;51.332;6.778;2023-03-16T10:05:32;5.47;;;3.90;;
920;SDS011;447;51.332;6.778;2023-03-16T10:13:12;4.87;;;3.80;;
920;SDS011;447;51.332;6.778;2023-03-16T10:16:14;5.88;;;4.03;;
920;SDS011;447;51.332;6.778;2023-03-16T10:18:48;7.17;;;3.63;;
920;SDS011;447;51.332;6.778;2023-03-16T10:21:18;4.07;;;3.45;;
920;SDS011;447;51.332;6.778;2023-03-16T10:23:45;5.23;;;3.50;;
920;SDS011;447;51.332;6.778;2023-03-16T10:26:19;6.40;;;3.90;;
920;SDS011;447;51.332;6.778;2023-03-16T10:28:54;5.60;;;4.30;;
920;SDS011;447;51.332;6.778;2023-03-16T10:31:25;6.07;;;3.93;;
920;SDS011;447;51.332;6.778;2023-03-16T10:33:57;4.50;;;3.57;;
920;SDS011;447;51.332;6.778;2023-03-16T10:36:31;5.90;;;3.73;;
920;SDS011;447;51.332;6.778;2023-03-16T10:41:34;4.13;;;3.10;;
920;SDS011;447;51.332;6.778;2023-03-16T10:44:05;4.40;;;3.63;;
920;SDS011;447;51.332;6.778;2023-03-16T10:46:48;4.33;;;3.40;;
920;SDS011;447;51.332;6.778;2023-03-16T10:49:23;4.70;;;3.67;;
920;SDS011;447;51.332;6.778;2023-03-16T10:51:54;6.17;;;3.73;;
920;SDS011;447;51.332;6.778;2023-03-16T10:54:33;3.97;;;3.27;;
920;SDS011;447;51.332;6.778;2023-03-16T10:59:51;3.70;;;3.33;;
920;SDS011;447;51.332;6.778;2023-03-16T11:02:22;3.93;;;3.00;;
920;SDS011;447;51.332;6.778;2023-03-16T11:04:57;5.63;;;3.93;;
920;SDS011;447;51.332;6.778;2023-03-16T11:07:23;4.67;;;3.60;;
920;SDS011;447;51.332;6.778;2023-03-16T11:09:56;5.00;;;3.60;;
920;SDS011;447;51.332;6.778;2023-03-16T11:12:25;4.70;;;3.70;;
920;SDS011;447;51.332;6.778;2023-03-16T11:15:00;4.97;;;2.83;;
920;SDS011;447;51.332;6.778;2023-03-16T11:18:01;4.37;;;3.30;;
920;SDS011;447;51.332;6.778;2023-03-16T11:20:27;5.30;;;3.80;;
920;SDS011;447;51.332;6.778;2023-03-16T11:22:56;4.63;;;3.53;;
920;SDS011;447;51.332;6.778;2023-03-16T11:25:37;4.60;;;3.37;;
920;SDS011;447;51.332;6.778;2023-03-16T11:28:18;5.57;;;4.10;;
920;SDS011;447;51.332;6.778;2023-03-16T11:33:52;4.30;;;3.20;;
920;SDS011;447;51.332;6.778;2023-03-16T11:41:39;4.20;;;3.30;;
920;SDS011;447;51.332;6.778;2023-03-16T11:44:13;4.07;;;3.60;;
920;SDS011;447;51.332;6.778;2023-03-16T11:47:04;3.87;;;3.47;;
920;SDS011;447;51.332;6.778;2023-03-16T11:52:54;4.10;;;2.87;;
920;SDS011;447;51.332;6.778;2023-03-16T11:55:28;4.30;;;3.00;;
920;SDS011;447;51.332;6.778;2023-03-16T12:01:07;3.73;;;2.93;;
920;SDS011;447;51.332;6.778;2023-03-16T12:03:43;3.40;;;2.70;;
920;SDS011;447;51.332;6.778;2023-03-16T12:06:28;3.77;;;2.83;;
920;SDS011;447;51.332;6.778;2023-03-16T12:18:22;3.60;;;2.50;;
920;SDS011;447;51.332;6.778;2023-03-16T12:21:03;2.63;;;2.27;;
920;SDS011;447;51.332;6.778;2023-03-16T12:23:39;3.33;;;3.00;;
920;SDS011;447;51.332;6.778;2023-03-16T12:26:12;2.60;;;2.37;;
920;SDS011;447;51.332;6.778;2023-03-16T12:28:39;3.70;;;2.63;;
920;SDS011;447;51.332;6.778;2023-03-16T12:31:14;3.20;;;2.47;;
920;SDS011;447;51.332;6.778;2023-03-16T12:34:03;2.93;;;2.53;;
920;SDS011;447;51.332;6.778;2023-03-16T12:36:41;3.97;;;2.53;;
920;SDS011;447;51.332;6.778;2023-03-16T12:42:24;4.07;;;2.60;;
920;SDS011;447;51.332;6.778;2023-03-16T12:50:14;2.90;;;2.33;;
920;SDS011;447;51.332;6.778;2023-03-16T12:52:48;3.30;;;2.40;;
920;SDS011;447;51.332;6.778;2023-03-16T12:55:22;2.20;;;2.00;;
920;SDS011;447;51.332;6.778;2023-03-16T12:58:01;2.60;;;2.17;;
920;SDS011;447;51.332;6.778;2023-03-16T13:00:36;3.10;;;2.70;;
920;SDS011;447;51.332;6.778;2023-03-16T13:03:12;3.93;;;2.30;;
920;SDS011;447;51.332;6.778;2023-03-16T13:05:44;3.03;;;2.30;;
920;SDS011;447;51.332;6.778;2023-03-16T13:08:16;2.70;;;2.20;;
920;SDS011;447;51.332;6.778;2023-03-16T13:13:50;4.50;;;2.60;;
920;SDS011;447;51.332;6.778;2023-03-16T13:16:29;4.50;;;2.50;;
920;SDS011;447;51.332;6.778;2023-03-16T13:19:15;4.00;;;2.67;;
920;SDS011;447;51.332;6.778;2023-03-16T13:21:46;4.40;;;2.13;;
920;SDS011;447;51.332;6.778;2023-03-16T13:26:57;3.10;;;2.17;;
920;SDS011;447;51.332;6.778;2023-03-16T13:29:32;4.67;;;2.43;;
920;SDS011;447;51.332;6.778;2023-03-16T13:32:07;2.60;;;2.10;;
920;SDS011;447;51.332;6.778;2023-03-16T13:34:49;2.63;;;2.20;;
920;SDS011;447;51.332;6.778;2023-03-16T13:37:18;3.77;;;2.10;;
920;SDS011;447;51.332;6.778;2023-03-16T13:39:51;6.80;;;2.13;;
920;SDS011;447;51.332;6.778;2023-03-16T13:42:25;2.20;;;2.00;;
920;SDS011;447;51.332;6.778;2023-03-16T13:44:54;5.10;;;2.50;;
920;SDS011;447;51.332;6.778;2023-03-16T13:47:25;2.83;;;2.27;;
920;SDS011;447;51.332;6.778;2023-03-16T13:49:56;5.03;;;2.60;;
920;SDS011;447;51.332;6.778;2023-03-16T13:52:33;6.97;;;2.03;;
920;SDS011;447;51.332;6.778;2023-03-16T13:55:00;2.73;;;2.20;;
920;SDS011;447;51.332;6.778;2023-03-16T13:57:35;3.97;;;2.17;;
920;SDS011;447;51.332;6.778;2023-03-16T14:00:12;5.13;;;2.50;;
920;SDS011;447;51.332;6.778;2023-03-16T14:02:42;3.20;;;1.90;;
920;SDS011;447;51.332;6.778;2023-03-16T14:05:45;3.73;;;2.00;;
920;SDS011;447;51.332;6.778;2023-03-16T14:08:12;4.63;;;2.20;;
920;SDS011;447;51.332;6.778;2023-03-16T14:10:43;4.43;;;1.83;;
920;SDS011;447;51.332;6.778;2023-03-16T14:16:05;1.70;;;1.50;;
920;SDS011;447;51.332;6.778;2023-03-16T14:18:39;3.40;;;2.30;;
920;SDS011;447;51.332;6.778;2023-03-16T14:21:12;3.00;;;1.67;;
920;SDS011;447;51.332;6.778;2023-03-16T14:24:01;3.53;;;1.80;;
920;SDS011;447;51.332;6.778;2023-03-16T14:26:45;2.57;;;1.80;;
920;SDS011;447;51.332;6.778;2023-03-16T14:29:26;4.33;;;2.03;;
920;SDS011;447;51.332;6.778;2023-03-16T14:31:56;2.43;;;1.90;;
920;SDS011;447;51.332;6.778;2023-03-16T14:37:09;2.30;;;1.60;;
920;SDS011;447;51.332;6.778;2023-03-16T14:39:43;2.43;;;1.93;;
920;SDS011;447;51.332;6.778;2023-03-16T14:42:18;2.10;;;1.70;;
920;SDS011;447;51.332;6.778;2023-03-16T14:44:54;3.53;;;1.67;;
920;SDS011;447;51.332;6.778;2023-03-16T14:47:24;3.03;;;2.03;;
920;SDS011;447;51.332;6.778;2023-03-16T14:49:56;1.73;;;1.50;;
920;SDS011;447;51.332;6.778;2023-03-16T14:52:26;3.10;;;1.77;;
920;SDS011;447;51.332;6.778;2023-03-16T14:54:56;5.10;;;1.60;;
920;SDS011;447;51.332;6.778;2023-03-16T14:57:23;2.40;;;2.00;;
920;SDS011;447;51.332;6.778;2023-03-16T14:59:50;2.10;;;1.63;;
920;SDS011;447;51.332;6.778;2023-03-16T15:02:27;4.60;;;1.47;;
920;SDS011;447;51.332;6.778;2023-03-16T15:04:56;1.97;;;1.80;;
920;SDS011;447;51.332;6.778;2023-03-16T15:07:25;3.50;;;1.80;;
920;SDS011;447;51.332;6.778;2023-03-16T15:09:54;4.93;;;1.93;;
920;SDS011;447;51.332;6.778;2023-03-16T15:12:27;2.30;;;1.80;;
920;SDS011;447;51.332;6.778;2023-03-16T15:14:53;4.70;;;1.70;;
920;SDS011;447;51.332;6.778;2023-03-16T15:17:43;3.83;;;2.13;;
920;SDS011;447;51.332;6.778;2023-03-16T15:20:14;4.90;;;2.00;;
920;SDS011;447;51.332;6.778;2023-03-16T15:22:45;2.60;;;2.00;;
920;SDS011;447;51.332;6.778;2023-03-16T15:25:29;2.93;;;1.70;;
920;SDS011;447;51.332;6.778;2023-03-16T15:28:14;2.83;;;1.70;;
920;SDS011;447;51.332;6.778;2023-03-16T15:30:49;3.10;;;1.90;;
920;SDS011;447;51.332;6.778;2023-03-16T15:33:21;2.50;;;1.93;;
920;SDS011;447;51.332;6.778;2023-03-16T15:35:52;2.20;;;1.97;;
920;SDS011;447;51.332;6.778;2023-03-16T15:40:50;3.50;;;2.00;;
920;SDS011;447;51.332;6.778;2023-03-16T15:43:23;2.10;;;1.90;;
920;SDS011;447;51.332;6.778;2023-03-16T15:45:54;2.43;;;2.23;;
920;SDS011;447;51.332;6.778;2023-03-16T15:48:24;1.90;;;1.70;;
920;SDS011;447;51.332;6.778;2023-03-16T15:50:54;3.90;;;1.80;;
920;SDS011;447;51.332;6.778;2023-03-16T15:53:44;3.00;;;1.50;;
920;SDS011;447;51.332;6.778;2023-03-16T15:56:20;2.97;;;2.03;;
920;SDS011;447;51.332;6.778;2023-03-16T15:58:57;2.30;;;1.80;;
920;SDS011;447;51.332;6.778;2023-03-16T16:01:31;2.03;;;1.80;;
920;SDS011;447;51.332;6.778;2023-03-16T16:04:17;2.67;;;2.10;;
920;SDS011;447;51.332;6.778;2023-03-16T16:06:50;3.90;;;1.50;;
920;SDS011;447;51.332;6.778;2023-03-16T16:09:23;2.20;;;1.70;;
920;SDS011;447;51.332;6.778;2023-03-16T16:11:51;1.93;;;1.63;;
920;SDS011;447;51.332;6.778;2023-03-16T16:14:19;3.10;;;1.90;;
920;SDS011;447;51.332;6.778;2023-03-16T16:16:51;3.07;;;1.90;;
920;SDS011;447;51.332;6.778;2023-03-16T16:19:18;2.67;;;2.00;;
920;SDS011;447;51.332;6.778;2023-03-16T16:21:46;2.60;;;1.70;;
920;SDS011;447;51.332;6.778;2023-03-16T16:24:15;2.00;;;1.80;;
920;SDS011;447;51.332;6.778;2023-03-16T16:26:43;2.50;;;2.00;;
920;SDS011;447;51.332;6.778;2023-03-16T16:29:19;2.23;;;1.87;;
920;SDS011;447;51.332;6.778;2023-03-16T16:31:49;1.90;;;1.70;;
920;SDS011;447;51.332;6.778;2023-03-16T16:34:19;2.00;;;1.80;;
920;SDS011;447;51.332;6.778;2023-03-16T16:36:48;4.30;;;2.10;;
920;SDS011;447;51.332;6.778;2023-03-16T16:39:15;4.40;;;1.90;;
920;SDS011;447;51.332;6.778;2023-03-16T16:41:41;2.17;;;1.97;;
920;SDS011;447;51.332;6.778;2023-03-16T16:44:18;2.57;;;1.60;;
920;SDS011;447;51.332;6.778;2023-03-16T16:46:47;2.60;;;1.83;;
920;SDS011;447;51.332;6.778;2023-03-16T16:49:18;2.77;;;2.13;;
920;SDS011;447;51.332;6.778;2023-03-16T16:51:48;3.20;;;2.20;;
920;SDS011;447;51.332;6.778;2023-03-16T16:54:19;4.20;;;1.93;;
920;SDS011;447;51.332;6.778;2023-03-16T16:56:51;3.20;;;2.27;;
920;SDS011;447;51.332;6.778;2023-03-16T16:59:24;2.70;;;1.80;;
920;SDS011;447;51.332;6.778;2023-03-16T17:01:58;2.87;;;2.00;;
920;SDS011;447;51.332;6.778;2023-03-16T17:04:39;2.13;;;1.83;;
920;SDS011;447;51.332;6.778;2023-03-16T17:07:08;2.60;;;2.10;;
920;SDS011;447;51.332;6.778;2023-03-16T17:09:36;2.90;;;1.67;;
920;SDS011;447;51.332;6.778;2023-03-16T17:12:08;2.90;;;2.20;;
920;SDS011;447;51.332;6.778;2023-03-16T17:14:43;3.53;;;2.00;;
920;SDS011;447;51.332;6.778;2023-03-16T17:17:11;1.90;;;1.67;;
920;SDS011;447;51.332;6.778;2023-03-16T17:19:44;3.20;;;1.90;;
920;SDS011;447;51.332;6.778;2023-03-16T17:22:23;3.10;;;2.40;;
920;SDS011;447;51.332;6.778;2023-03-16T17:24:51;3.83;;;2.10;;
920;SDS011;447;51.332;6.778;2023-03-16T17:27:23;3.03;;;2.23;;